Time;durP1;ratioP1;P1;durP2;ratioP2;P2;SDS_P1;SDS_P2;PMS_P1;PMS_P2;Temp;Humidity;BMP_temperature;BMP_pressure;BME280_temperature;BME280_humidity;BME280_pressure;Samples;Min_cycle;Max_cycle;Signal;HPM_P1;HPM_P2
2021/11/05 00:00:23;;;;;;;6.63;4.05;;;;;;;7.20;100.00;100139.38;5113517;28;20050;-75
2021/11/05 00:02:54;;;;;;;8.43;4.80;;;;;;;7.25;100.00;100137.38;5112899;28;20530;-74
2021/11/05 00:05:24;;;;;;;6.60;4.60;;;;;;;7.41;100.00;100134.84;5113446;28;20062;-74
2021/11/05 00:07:52;;;;;;;8.93;4.63;;;;;;;7.37;100.00;100142.09;5113405;28;20097;-75
2021/11/05 00:10:21;;;;;;;8.38;4.20;;;;;;;7.37;100.00;100147.41;5113314;28;20043;-74
2021/11/05 00:12:49;;;;;;;7.95;4.20;;;;;;;7.36;100.00;100140.38;5112638;28;20057;-74
2021/11/05 00:15:18;;;;;;;6.38;4.18;;;;;;;7.34;100.00;100136.09;5113299;28;20092;-74
2021/11/05 00:17:47;;;;;;;6.15;3.80;;;;;;;7.31;100.00;100149.47;5112469;28;20063;-78
2021/11/05 00:20:15;;;;;;;6.68;4.05;;;;;;;7.15;100.00;100146.72;5113118;28;20511;-77
2021/11/05 00:22:45;;;;;;;7.22;4.28;;;;;;;7.14;100.00;100140.56;5112865;28;20071;-76
2021/11/05 00:25:14;;;;;;;6.35;3.97;;;;;;;7.16;100.00;100148.44;5112889;28;20040;-76
2021/11/05 00:27:42;;;;;;;6.15;3.60;;;;;;;7.17;100.00;100144.84;5112808;28;20036;-83
2021/11/05 00:30:12;;;;;;;5.00;3.47;;;;;;;7.05;100.00;100145.44;5113144;28;20537;-77
2021/11/05 00:32:41;;;;;;;6.53;3.50;;;;;;;6.87;100.00;100145.38;5113116;28;20472;-78
2021/11/05 00:35:11;;;;;;;7.03;2.85;;;;;;;7.04;100.00;100151.66;5113111;28;20374;-77
2021/11/05 00:37:40;;;;;;;5.68;2.80;;;;;;;7.07;100.00;100154.19;5113004;28;20043;-77
2021/11/05 00:40:11;;;;;;;4.93;2.90;;;;;;;7.05;100.00;100166.66;5112972;28;20047;-78
2021/11/05 00:42:40;;;;;;;6.47;3.20;;;;;;;6.93;100.00;100168.06;5112807;28;20446;-77
2021/11/05 00:45:10;;;;;;;4.97;3.10;;;;;;;6.92;100.00;100169.00;5112774;28;20058;-75
2021/11/05 00:47:39;;;;;;;5.25;3.10;;;;;;;7.07;100.00;100170.94;5113054;28;20126;-77
2021/11/05 00:50:08;;;;;;;4.72;2.75;;;;;;;7.09;100.00;100162.91;5112651;28;20061;-76
2021/11/05 00:52:37;;;;;;;4.68;2.40;;;;;;;7.11;100.00;100150.44;5094226;28;20053;-76
2021/11/05 00:55:06;;;;;;;4.25;2.55;;;;;;;7.30;100.00;100145.97;5113231;28;20040;-76
2021/11/05 00:57:36;;;;;;;5.10;2.80;;;;;;;7.17;100.00;100134.25;5116314;28;20047;-75
2021/11/05 01:00:07;;;;;;;5.38;3.20;;;;;;;7.17;100.00;100128.94;5116273;28;20040;-75
2021/11/05 01:02:36;;;;;;;6.10;3.53;;;;;;;7.04;100.00;100130.44;5116550;28;20130;-75
2021/11/05 01:05:14;;;;;;;5.25;3.03;;;;;;;6.91;100.00;100121.34;5116530;28;20391;-74
2021/11/05 01:07:42;;;;;;;5.60;3.45;;;;;;;6.86;100.00;100124.22;5098567;28;20079;-74
2021/11/05 01:10:11;;;;;;;5.20;2.88;;;;;;;6.78;100.00;100132.53;5116264;28;20044;-77
2021/11/05 01:12:41;;;;;;;6.63;3.40;;;;;;;6.72;100.00;100127.50;5115882;28;20058;-77
2021/11/05 01:15:11;;;;;;;5.22;3.03;;;;;;;6.57;100.00;100154.72;5115947;28;20048;-77
2021/11/05 01:17:41;;;;;;;5.20;3.22;;;;;;;6.65;100.00;100147.28;5116072;28;20454;-78
2021/11/05 01:20:13;;;;;;;4.30;3.05;;;;;;;6.52;100.00;100140.81;5115661;28;20516;-83
2021/11/05 01:22:44;;;;;;;4.88;2.92;;;;;;;6.46;100.00;100135.78;5115879;28;20051;-84
2021/11/05 01:25:13;;;;;;;5.95;2.92;;;;;;;6.44;100.00;100137.66;5115809;28;20097;-83
2021/11/05 01:27:47;;;;;;;5.93;3.25;;;;;;;6.66;100.00;100149.03;5115757;28;20039;-83
2021/11/05 01:30:17;;;;;;;4.68;3.17;;;;;;;6.68;100.00;100143.63;5115733;28;20062;-77
2021/11/05 01:32:49;;;;;;;3.90;2.50;;;;;;;6.82;100.00;100152.66;5115634;28;20039;-78
2021/11/05 01:35:17;;;;;;;4.78;2.88;;;;;;;6.70;100.00;100142.63;5116511;28;20047;-77
2021/11/05 01:37:46;;;;;;;6.63;3.40;;;;;;;6.76;100.00;100128.25;5115730;28;20471;-81
2021/11/05 01:40:16;;;;;;;4.65;2.67;;;;;;;6.76;100.00;100113.19;5115520;28;20126;-81
2021/11/05 01:42:46;;;;;;;5.00;3.03;;;;;;;6.62;100.00;100112.97;5115495;28;20089;-80
2021/11/05 01:45:14;;;;;;;6.68;3.05;;;;;;;6.57;100.00;100122.94;5115343;28;20051;-82
2021/11/05 01:47:43;;;;;;;4.25;2.60;;;;;;;6.42;100.00;100134.22;5115289;28;20044;-83
2021/11/05 01:50:12;;;;;;;5.38;2.97;;;;;;;6.55;100.00;100130.06;5096932;28;20047;-83
2021/11/05 01:52:41;;;;;;;6.57;3.10;;;;;;;6.43;100.00;100135.94;5115131;28;20047;-79
2021/11/05 01:55:11;;;;;;;6.05;2.88;;;;;;;6.40;100.00;100141.38;5114841;28;20044;-81
2021/11/05 01:57:39;;;;;;;4.88;3.20;;;;;;;6.37;100.00;100146.78;5115207;28;20048;-78
2021/11/05 02:00:13;;;;;;;5.60;3.20;;;;;;;6.29;100.00;100145.38;5114758;28;20630;-79
2021/11/05 02:02:42;;;;;;;6.85;3.40;;;;;;;6.29;100.00;100149.81;5115048;28;20047;-79
2021/11/05 02:05:11;;;;;;;10.00;3.97;;;;;;;6.23;100.00;100166.81;5114926;28;20488;-77
2021/11/05 02:07:44;;;;;;;5.20;3.33;;;;;;;6.07;100.00;100181.63;5114583;28;20416;-77
2021/11/05 02:10:14;;;;;;;6.57;4.00;;;;;;;6.05;100.00;100199.38;5115054;28;20122;-77
2021/11/05 02:12:42;;;;;;;5.82;3.60;;;;;;;6.06;100.00;100195.81;5114756;28;20043;-79
2021/11/05 02:15:14;;;;;;;7.50;3.72;;;;;;;5.97;100.00;100190.91;5114483;28;20054;-79
2021/11/05 02:17:43;;;;;;;5.80;3.63;;;;;;;6.11;100.00;100198.28;5114619;28;20063;-78
2021/11/05 02:20:12;;;;;;;6.32;3.92;;;;;;;6.09;100.00;100203.63;5096686;28;20047;-78
2021/11/05 02:22:42;;;;;;;5.55;3.65;;;;;;;6.12;100.00;100210.59;5114878;28;20040;-78
2021/11/05 02:25:11;;;;;;;5.65;3.50;;;;;;;6.12;100.00;100210.59;5114263;28;20047;-78
2021/11/05 02:27:40;;;;;;;8.10;3.63;;;;;;;6.17;100.00;100217.38;5114488;28;20043;-78
2021/11/05 02:30:11;;;;;;;7.78;3.63;;;;;;;6.17;100.00;100222.69;5114476;28;20048;-78
2021/11/05 02:32:41;;;;;;;4.97;3.47;;;;;;;6.16;100.00;100231.56;5114798;28;20043;-78
2021/11/05 02:35:11;;;;;;;5.97;3.72;;;;;;;6.01;100.00;100226.94;5095913;28;20856;-76
2021/11/05 02:37:39;;;;;;;6.43;3.45;;;;;;;5.99;100.00;100234.06;5114367;28;20043;-76
2021/11/05 02:40:10;;;;;;;7.03;3.80;;;;;;;6.00;100.00;100228.72;5114336;28;20388;-78
2021/11/05 02:42:39;;;;;;;5.88;3.72;;;;;;;5.98;100.00;100234.97;5114587;28;20046;-78
2021/11/05 02:45:09;;;;;;;6.10;4.28;;;;;;;5.83;100.00;100235.59;5114312;28;20063;-77
2021/11/05 02:47:38;;;;;;;7.15;4.10;;;;;;;5.69;100.00;100241.44;5114690;28;20071;-76
2021/11/05 02:50:09;;;;;;;5.32;3.47;;;;;;;5.77;100.00;100236.69;5114028;28;20043;-78
2021/11/05 02:52:37;;;;;;;6.32;3.65;;;;;;;5.91;100.00;100238.81;5114232;28;20065;-77
2021/11/05 02:55:07;;;;;;;5.90;3.50;;;;;;;5.81;100.00;100230.38;5113950;28;20528;-77
2021/11/05 02:57:38;;;;;;;6.97;4.07;;;;;;;5.80;100.00;100235.72;5095823;28;20552;-77
2021/11/05 03:00:09;;;;;;;6.38;4.10;;;;;;;5.86;100.00;100230.16;5113976;28;20048;-77
2021/11/05 03:02:38;;;;;;;6.55;3.83;;;;;;;5.94;100.00;100228.09;5114344;28;20039;-75
2021/11/05 03:05:10;;;;;;;5.60;3.60;;;;;;;5.96;100.00;100228.88;5113992;28;20420;-74
2021/11/05 03:07:39;;;;;;;6.13;3.88;;;;;;;5.89;100.00;100235.34;5095891;28;20051;-74
2021/11/05 03:10:09;;;;;;;5.28;3.60;;;;;;;5.82;100.00;100240.03;5113763;28;20044;-74
2021/11/05 03:12:39;;;;;;;6.85;3.70;;;;;;;5.79;100.00;100242.81;5114058;28;20043;-74
2021/11/05 03:15:08;;;;;;;6.32;3.60;;;;;;;5.94;100.00;100243.97;5113595;28;20067;-74
2021/11/05 03:17:37;;;;;;;5.57;3.80;;;;;;;5.97;100.00;100243.84;5112980;28;20070;-75
2021/11/05 03:20:09;;;;;;;9.27;3.97;;;;;;;6.08;100.00;100246.03;5113629;28;20487;-75
2021/11/05 03:22:37;;;;;;;5.95;3.67;;;;;;;6.03;100.00;100243.59;5114064;28;20040;-75
2021/11/05 03:25:07;;;;;;;5.53;3.63;;;;;;;5.91;100.00;100246.78;5113516;28;20092;-74
2021/11/05 03:27:35;;;;;;;6.75;3.72;;;;;;;5.92;100.00;100244.06;5113376;28;20047;-74
2021/11/05 03:30:07;;;;;;;6.50;4.15;;;;;;;5.88;100.00;100252.13;5113396;28;20039;-75
2021/11/05 03:32:36;;;;;;;7.43;3.92;;;;;;;5.79;100.00;100255.16;5113864;28;20472;-75
2021/11/05 03:35:12;;;;;;;6.70;4.30;;;;;;;5.73;100.00;100251.84;5113395;28;20036;-74
2021/11/05 03:37:41;;;;;;;7.07;4.18;;;;;;;5.82;100.00;100250.63;5113593;28;20068;-74
2021/11/05 03:40:12;;;;;;;8.00;4.68;;;;;;;5.79;100.00;100244.56;5113072;28;20431;-74
2021/11/05 03:42:41;;;;;;;7.88;4.55;;;;;;;5.60;100.00;100234.75;5113702;28;20093;-74
2021/11/05 03:45:11;;;;;;;7.55;4.80;;;;;;;5.53;100.00;100233.25;5113258;28;20075;-74
2021/11/05 03:47:39;;;;;;;6.25;4.13;;;;;;;5.62;100.00;100230.25;5113191;28;20092;-72
2021/11/05 03:50:08;;;;;;;7.20;4.72;;;;;;;5.66;100.00;100237.13;5113189;28;20043;-74
2021/11/05 03:52:36;;;;;;;9.45;4.43;;;;;;;5.55;100.00;100235.84;5113494;28;20104;-73
2021/11/05 03:55:06;;;;;;;7.97;4.88;;;;;;;5.24;100.00;100237.03;5112730;28;20043;-74
2021/11/05 03:57:34;;;;;;;6.80;4.32;;;;;;;5.06;100.00;100232.47;5113020;28;20047;-73
2021/11/05 04:00:05;;;;;;;8.63;5.20;;;;;;;5.34;100.00;100221.69;5112854;28;20040;-73
2021/11/05 04:02:36;;;;;;;8.00;4.72;;;;;;;5.40;100.00;100232.91;5113699;28;20043;-74
2021/11/05 04:05:11;;;;;;;9.57;4.72;;;;;;;5.40;100.00;100240.84;5112846;28;20043;-75
2021/11/05 04:07:40;;;;;;;12.30;4.55;;;;;;;5.52;100.00;100242.13;5113075;28;20112;-72
2021/11/05 04:10:09;;;;;;;9.57;4.90;;;;;;;5.47;100.00;100247.59;5113043;28;20122;-72
2021/11/05 04:12:37;;;;;;;8.32;4.60;;;;;;;5.57;100.00;100261.31;5113415;28;20040;-72
2021/11/05 04:15:07;;;;;;;6.53;4.47;;;;;;;5.65;100.00;100275.09;5112871;28;20390;-72
2021/11/05 04:17:38;;;;;;;8.55;4.57;;;;;;;5.57;100.00;100277.19;5112954;28;20039;-72
2021/11/05 04:20:07;;;;;;;7.90;4.95;;;;;;;5.55;100.00;100263.16;5094751;28;20405;-72
2021/11/05 04:22:37;;;;;;;6.72;4.43;;;;;;;5.58;100.00;100267.47;5113498;28;20048;-72
2021/11/05 04:25:06;;;;;;;8.00;4.28;;;;;;;5.75;100.00;100273.81;5112891;28;20122;-72
2021/11/05 04:27:34;;;;;;;7.57;4.72;;;;;;;5.74;100.00;100285.31;5113086;28;20043;-72
2021/11/05 04:30:04;;;;;;;10.98;4.97;;;;;;;5.82;100.00;100278.88;5115420;28;20446;-72
2021/11/05 04:32:33;;;;;;;8.85;4.53;;;;;;;5.94;100.00;100275.75;5117055;28;20039;-72
2021/11/05 04:35:04;;;;;;;8.50;4.55;;;;;;;5.87;100.00;100292.78;5116359;28;20579;-72
2021/11/05 04:37:33;;;;;;;8.18;4.38;;;;;;;5.92;100.00;100288.19;5117127;28;20040;-72
2021/11/05 04:40:01;;;;;;;8.13;4.70;;;;;;;6.01;100.00;100277.25;5116672;28;20039;-72
2021/11/05 04:42:29;;;;;;;9.57;5.70;;;;;;;5.68;100.00;100274.13;5116827;28;20042;-72
2021/11/05 04:44:58;;;;;;;8.48;5.00;;;;;;;5.66;100.00;100282.13;5116863;28;20046;-71
2021/11/05 04:47:26;;;;;;;9.35;5.03;;;;;;;5.64;100.00;100294.56;5116614;28;20043;-72
2021/11/05 04:49:54;;;;;;;6.82;4.72;;;;;;;5.68;100.00;100295.28;5116385;28;20114;-72
2021/11/05 04:52:24;;;;;;;6.55;4.53;;;;;;;5.77;100.00;100309.94;5116371;28;20053;-72
2021/11/05 04:54:52;;;;;;;7.28;4.22;;;;;;;5.71;100.00;100306.63;5116329;28;20047;-72
2021/11/05 04:57:21;;;;;;;6.63;4.05;;;;;;;5.89;100.00;100309.47;5116021;28;20043;-76
2021/11/05 04:59:49;;;;;;;6.25;4.13;;;;;;;5.93;100.00;100305.81;5116184;28;20040;-76
2021/11/05 05:02:18;;;;;;;6.55;4.22;;;;;;;5.84;100.00;100300.84;5116235;28;20039;-71
2021/11/05 05:04:47;;;;;;;6.63;4.35;;;;;;;5.80;100.00;100299.25;5116441;28;20537;-71
2021/11/05 05:07:16;;;;;;;8.65;4.47;;;;;;;6.04;100.00;100295.63;5115802;28;20055;-71
2021/11/05 05:09:45;;;;;;;7.07;4.57;;;;;;;6.01;100.00;100309.00;5116101;28;20127;-71
2021/11/05 05:12:13;;;;;;;6.65;4.15;;;;;;;5.92;100.00;100318.19;5115711;28;20048;-72
2021/11/05 05:14:42;;;;;;;6.88;4.40;;;;;;;5.93;100.00;100303.16;5116184;28;20414;-75
2021/11/05 05:17:10;;;;;;;8.68;5.10;;;;;;;5.86;100.00;100306.94;5115783;28;20092;-75
2021/11/05 05:19:39;;;;;;;6.63;4.25;;;;;;;5.87;100.00;100311.31;5116380;28;20052;-75
2021/11/05 05:22:08;;;;;;;7.57;5.05;;;;;;;5.89;100.00;100305.03;5115438;28;20043;-75
2021/11/05 05:24:37;;;;;;;7.75;5.18;;;;;;;5.96;100.00;100303.88;5116105;28;20047;-74
2021/11/05 05:27:09;;;;;;;9.70;5.88;;;;;;;5.76;100.00;100314.38;5115747;28;20495;-75
2021/11/05 05:29:37;;;;;;;10.20;6.93;;;;;;;5.60;100.00;100319.44;5116124;28;20067;-74
2021/11/05 05:32:06;;;;;;;9.25;6.88;;;;;;;5.52;100.00;100326.78;5115521;28;20127;-77
2021/11/05 05:34:35;;;;;;;11.07;6.10;;;;;;;5.77;100.00;100347.00;5115489;28;20129;-76
2021/11/05 05:37:03;;;;;;;8.15;5.80;;;;;;;5.76;100.00;100343.50;5115175;28;20097;-79
2021/11/05 05:39:31;;;;;;;10.50;6.32;;;;;;;5.65;100.00;100338.63;5115405;28;20043;-75
2021/11/05 05:42:00;;;;;;;7.93;5.40;;;;;;;5.60;100.00;100345.88;5114814;28;20043;-75
2021/11/05 05:44:30;;;;;;;11.73;6.22;;;;;;;5.46;100.00;100359.63;5115609;28;20051;-75
2021/11/05 05:46:59;;;;;;;10.40;6.55;;;;;;;5.47;100.00;100360.47;5115543;28;20050;-77
2021/11/05 05:49:27;;;;;;;11.48;6.25;;;;;;;5.46;100.00;100364.06;5115236;28;20036;-78
2021/11/05 05:51:56;;;;;;;10.07;5.32;;;;;;;5.42;100.00;100352.72;5115600;28;20044;-77
2021/11/05 05:54:24;;;;;;;12.05;6.13;;;;;;;5.69;100.00;100350.81;5115014;28;20777;-78
2021/11/05 05:56:53;;;;;;;7.10;4.68;;;;;;;5.94;100.00;100361.34;5114988;28;20050;-77
2021/11/05 05:59:21;;;;;;;6.93;4.18;;;;;;;5.87;100.00;100353.66;5114572;28;20040;-77
2021/11/05 06:01:51;;;;;;;7.75;4.95;;;;;;;5.84;100.00;100357.28;5115004;28;20043;-74
2021/11/05 06:04:19;;;;;;;8.00;5.63;;;;;;;6.12;100.00;100359.75;5114592;28;20051;-75
2021/11/05 06:06:48;;;;;;;8.45;5.05;;;;;;;6.16;100.00;100361.34;5115157;28;20165;-77
2021/11/05 06:09:16;;;;;;;7.68;4.90;;;;;;;6.19;100.00;100371.84;5114778;28;20039;-78
2021/11/05 06:11:45;;;;;;;6.85;4.60;;;;;;;5.99;100.00;100379.72;5114954;28;20035;-77
2021/11/05 06:14:15;;;;;;;9.65;5.00;;;;;;;6.03;100.00;100378.66;5114879;28;20046;-74
2021/11/05 06:16:44;;;;;;;7.65;5.28;;;;;;;6.11;100.00;100381.88;5115150;28;20052;-74
2021/11/05 06:19:13;;;;;;;6.35;4.70;;;;;;;6.08;100.00;100379.34;5114333;28;20048;-72
2021/11/05 06:21:41;;;;;;;9.20;4.68;;;;;;;6.05;100.00;100391.81;5114910;28;20048;-72
2021/11/05 06:24:10;;;;;;;7.30;4.72;;;;;;;5.91;100.00;100395.88;5114525;28;20039;-76
2021/11/05 06:26:38;;;;;;;7.30;4.80;;;;;;;5.98;100.00;100393.84;5114717;28;20422;-72
2021/11/05 06:29:07;;;;;;;9.23;5.30;;;;;;;6.06;100.00;100399.72;5114623;28;20046;-74
2021/11/05 06:31:35;;;;;;;7.97;5.53;;;;;;;6.10;100.00;100400.47;5096305;28;20047;-74
2021/11/05 06:34:05;;;;;;;9.30;5.47;;;;;;;6.16;100.00;100395.78;5114543;28;20048;-75
2021/11/05 06:36:37;;;;;;;13.30;6.13;;;;;;;6.19;100.00;100402.75;5114102;28;20039;-75
2021/11/05 06:39:11;;;;;;;7.90;5.78;;;;;;;6.31;100.00;100413.72;5114685;28;20492;-74
2021/11/05 06:41:39;;;;;;;8.80;5.70;;;;;;;6.39;100.00;100420.50;5114007;28;20377;-72
2021/11/05 06:44:08;;;;;;;10.00;5.90;;;;;;;6.54;100.00;100428.66;5114376;28;20035;-75
2021/11/05 06:46:36;;;;;;;7.75;5.18;;;;;;;6.69;100.00;100440.44;5114049;28;20043;-76
2021/11/05 06:49:05;;;;;;;9.68;6.10;;;;;;;6.63;100.00;100453.94;5113806;28;20058;-74
2021/11/05 06:51:33;;;;;;;8.48;5.90;;;;;;;6.49;100.00;100458.94;5113293;28;20381;-73
2021/11/05 06:54:03;;;;;;;8.98;5.53;;;;;;;6.55;100.00;100463.97;5113817;28;20042;-74
2021/11/05 06:56:31;;;;;;;9.98;6.05;;;;;;;6.67;100.00;100460.88;5113498;28;20040;-77
2021/11/05 06:59:00;;;;;;;8.88;6.10;;;;;;;6.88;100.00;100467.94;5113375;28;20039;-71
2021/11/05 07:01:29;;;;;;;9.27;5.82;;;;;;;7.05;100.00;100474.31;5113043;28;20047;-72
2021/11/05 07:03:57;;;;;;;7.57;5.32;;;;;;;7.09;100.00;100481.22;5110444;28;20565;-70
2021/11/05 07:06:25;;;;;;;10.70;6.05;;;;;;;7.05;100.00;100482.28;5115488;28;20042;-71
2021/11/05 07:08:53;;;;;;;10.93;6.13;;;;;;;7.12;100.00;100486.38;5113065;28;20051;-71
2021/11/05 07:11:23;;;;;;;10.40;5.82;;;;;;;7.26;100.00;100476.06;5113983;28;20040;-71
2021/11/05 07:13:51;;;;;;;10.98;6.38;;;;;;;7.25;100.00;100476.13;5113452;28;20504;-73
2021/11/05 07:16:19;;;;;;;13.25;6.47;;;;;;;7.33;100.00;100490.75;5113652;28;20043;-74
2021/11/05 07:18:49;;;;;;;13.43;7.25;;;;;;;7.32;100.00;100493.50;5113514;28;20165;-74
2021/11/05 07:21:18;;;;;;;17.17;6.78;;;;;;;7.41;100.00;100504.56;5110658;28;20556;-74
2021/11/05 07:23:49;;;;;;;12.98;7.05;;;;;;;7.53;100.00;100499.66;5108860;28;20447;-80
2021/11/05 07:26:18;;;;;;;8.88;5.53;;;;;;;7.72;100.00;100487.28;5112344;28;20097;-71
2021/11/05 07:28:48;;;;;;;8.85;5.13;;;;;;;7.99;100.00;100490.50;5109112;28;20047;-71
2021/11/05 07:31:16;;;;;;;10.48;5.68;;;;;;;8.03;100.00;100492.97;5092090;28;20071;-70
2021/11/05 07:33:44;;;;;;;7.78;4.90;;;;;;;8.03;100.00;100498.28;5111779;28;20135;-73
2021/11/05 07:36:12;;;;;;;9.38;5.65;;;;;;;8.03;100.00;100492.97;5112496;28;20032;-72
2021/11/05 07:38:41;;;;;;;9.35;5.93;;;;;;;8.09;100.00;100502.44;5112128;28;20040;-71
2021/11/05 07:41:11;;;;;;;10.15;5.60;;;;;;;8.04;100.00;100504.44;5112177;28;20067;-71
2021/11/05 07:43:39;;;;;;;12.10;5.32;;;;;;;8.15;100.00;100501.31;5108633;28;20050;-73
2021/11/05 07:46:09;;;;;;;7.63;5.22;;;;;;;8.17;100.00;100499.44;5111013;28;20067;-72
2021/11/05 07:48:38;;;;;;;9.25;5.88;;;;;;;8.16;100.00;100493.25;5112066;28;20094;-75
2021/11/05 07:51:07;;;;;;;8.00;5.47;;;;;;;8.22;100.00;100500.09;5111012;28;20485;-75
2021/11/05 07:53:36;;;;;;;8.25;4.90;;;;;;;8.20;100.00;100488.66;5111188;28;20122;-74
2021/11/05 07:56:05;;;;;;;9.98;5.30;;;;;;;8.22;100.00;100492.97;5112429;28;20067;-77
2021/11/05 07:58:43;;;;;;;9.48;5.30;;;;;;;8.25;100.00;100474.22;5111956;28;20067;-75
2021/11/05 08:01:13;;;;;;;7.00;4.72;;;;;;;8.27;100.00;100476.81;5110825;28;20047;-75
2021/11/05 08:03:44;;;;;;;7.43;4.30;;;;;;;8.27;100.00;100480.31;5112548;28;20055;-73
2021/11/05 08:06:13;;;;;;;9.05;4.13;;;;;;;8.35;100.00;100487.97;5116614;28;20039;-71
2021/11/05 08:08:41;;;;;;;7.35;3.90;;;;;;;8.38;100.00;100482.50;5116219;28;20039;-74
2021/11/05 08:11:12;;;;;;;6.30;3.95;;;;;;;8.32;100.00;100482.78;5116581;28;20491;-76
2021/11/05 08:13:41;;;;;;;6.43;3.92;;;;;;;8.46;100.00;100480.34;5116610;28;20535;-72
2021/11/05 08:16:10;;;;;;;6.82;4.05;;;;;;;8.51;100.00;100482.81;5116271;28;20053;-75
2021/11/05 08:18:40;;;;;;;7.60;4.20;;;;;;;8.47;100.00;100482.06;5116135;28;20108;-75
2021/11/05 08:21:08;;;;;;;7.32;4.40;;;;;;;8.52;100.00;100497.81;5115330;28;20054;-74
2021/11/05 08:23:36;;;;;;;6.07;3.95;;;;;;;8.64;100.00;100501.69;5115991;28;20043;-72
2021/11/05 08:26:06;;;;;;;10.77;4.55;;;;;;;8.68;100.00;100511.22;5115946;28;20469;-75
2021/11/05 08:28:37;;;;;;;6.38;3.95;;;;;;;8.78;100.00;100528.44;5115996;28;20071;-73
2021/11/05 08:31:11;;;;;;;8.65;4.50;;;;;;;8.81;100.00;100528.31;5114466;28;20123;-75
2021/11/05 08:33:42;;;;;;;8.15;4.50;;;;;;;8.96;100.00;100537.34;5115946;28;20563;-74
2021/11/05 08:36:12;;;;;;;7.72;4.22;;;;;;;9.05;100.00;100542.22;5116287;28;20044;-74
2021/11/05 08:38:42;;;;;;;8.80;4.28;;;;;;;9.02;100.00;100548.56;5115872;28;20081;-79
2021/11/05 08:41:15;;;;;;;6.40;3.85;;;;;;;9.04;100.00;100559.97;5116079;28;20473;-72
2021/11/05 08:43:45;;;;;;;5.88;4.07;;;;;;;9.04;100.00;100569.75;5115586;28;20043;-72
2021/11/05 08:46:16;;;;;;;6.90;3.53;;;;;;;9.11;98.83;100564.06;5115797;28;20039;-71
2021/11/05 08:49:07;;;;;;;5.88;3.88;;;;;;;9.17;98.03;100550.47;5115605;28;20054;-72
2021/11/05 08:51:36;;;;;;;9.07;3.85;;;;;;;9.25;97.14;100539.41;5115554;28;20088;-72
2021/11/05 08:54:04;;;;;;;7.72;3.80;;;;;;;9.36;98.16;100536.22;5115666;28;20412;-71
2021/11/05 08:56:32;;;;;;;6.97;3.33;;;;;;;9.38;97.36;100545.00;5115473;28;20357;-74
2021/11/05 08:59:01;;;;;;;7.05;3.83;;;;;;;9.29;99.12;100556.97;5116085;28;20044;-74
2021/11/05 09:01:30;;;;;;;6.07;3.28;;;;;;;9.31;98.24;100556.91;5117030;28;20047;-74
2021/11/05 09:03:59;;;;;;;7.80;4.00;;;;;;;9.30;98.13;100568.50;5115467;28;20078;-76
2021/11/05 09:06:29;;;;;;;5.45;3.28;;;;;;;9.39;95.46;100574.22;5116023;28;20043;-78
2021/11/05 09:09:00;;;;;;;8.02;3.83;;;;;;;9.31;96.96;100579.06;5115139;28;20043;-76
2021/11/05 09:11:31;;;;;;;6.35;3.55;;;;;;;9.41;97.39;100576.78;5097109;28;20078;-76
2021/11/05 09:14:00;;;;;;;5.63;3.72;;;;;;;9.48;96.35;100572.03;5115436;28;20116;-75
2021/11/05 09:16:29;;;;;;;8.85;3.55;;;;;;;9.48;95.48;100578.22;5113741;28;20036;-76
2021/11/05 09:19:01;;;;;;;6.60;3.60;;;;;;;9.56;95.41;100576.03;5114961;28;20142;-75
2021/11/05 09:21:32;;;;;;;6.05;3.47;;;;;;;9.69;94.71;100582.44;5114899;28;20047;-76
2021/11/05 09:24:00;;;;;;;5.55;3.25;;;;;;;9.64;96.94;100600.44;5114720;28;20050;-71
2021/11/05 09:26:29;;;;;;;7.15;3.60;;;;;;;9.65;95.30;100602.19;5115280;28;20032;-76
2021/11/05 09:28:59;;;;;;;7.00;3.17;;;;;;;9.74;96.54;100596.38;5115084;28;20089;-75
2021/11/05 09:31:28;;;;;;;6.22;3.70;;;;;;;9.88;94.26;100603.69;5114042;28;20066;-73
2021/11/05 09:33:56;;;;;;;5.63;3.40;;;;;;;10.02;93.08;100600.28;5114998;28;20043;-73
2021/11/05 09:36:24;;;;;;;6.82;3.25;;;;;;;9.98;95.95;100599.59;5114809;28;20048;-75
2021/11/05 09:38:56;;;;;;;6.28;3.80;;;;;;;9.94;95.09;100602.47;5113499;28;20138;-77
2021/11/05 09:41:24;;;;;;;7.93;4.10;;;;;;;10.02;95.02;100611.81;5114716;28;20035;-76
2021/11/05 09:43:55;;;;;;;6.47;3.60;;;;;;;10.10;93.18;100614.06;5114551;28;20096;-71
2021/11/05 09:46:29;;;;;;;6.75;3.85;;;;;;;10.18;94.16;100622.53;5113770;28;20067;-72
2021/11/05 09:48:58;;;;;;;7.78;3.55;;;;;;;10.25;94.32;100623.13;5112513;28;20056;-70
2021/11/05 09:51:26;;;;;;;5.45;3.25;;;;;;;10.43;90.22;100626.63;5113582;28;20042;-72
2021/11/05 09:54:01;;;;;;;4.82;2.67;;;;;;;10.59;86.45;100622.16;5111766;28;20451;-75
2021/11/05 09:56:31;;;;;;;4.13;2.20;;;;;;;10.62;82.95;100606.00;5113816;28;20127;-76
2021/11/05 09:59:00;;;;;;;3.53;2.10;;;;;;;10.61;84.53;100593.56;5112880;28;20135;-75
2021/11/05 10:01:28;;;;;;;4.85;2.33;;;;;;;10.52;83.65;100589.63;5113783;28;20040;-74
2021/11/05 10:03:56;;;;;;;3.10;1.92;;;;;;;10.64;82.99;100592.56;5113601;28;20127;-76
2021/11/05 10:06:24;;;;;;;4.47;2.00;;;;;;;10.56;82.35;100599.19;5114053;28;20050;-72
2021/11/05 10:08:54;;;;;;;3.42;1.90;;;;;;;10.58;82.88;100583.09;5113901;28;20036;-72
2021/11/05 10:11:27;;;;;;;3.33;1.80;;;;;;;10.61;83.80;100582.91;5113687;28;20131;-75
2021/11/05 10:13:57;;;;;;;3.58;1.90;;;;;;;10.60;81.65;100590.06;5113736;28;20048;-73
2021/11/05 10:16:26;;;;;;;3.78;1.80;;;;;;;10.66;82.67;100594.19;5114247;28;20445;-75
2021/11/05 10:18:57;;;;;;;3.42;1.65;;;;;;;10.87;80.84;100589.47;5112304;28;20055;-73
2021/11/05 10:21:26;;;;;;;4.30;1.73;;;;;;;10.87;81.40;100598.34;5113795;28;20071;-76
2021/11/05 10:24:06;;;;;;;2.90;1.90;;;;;;;10.89;80.29;100601.78;5113395;28;20122;-75
2021/11/05 10:26:36;;;;;;;3.40;1.88;;;;;;;10.92;80.76;100602.59;5091171;28;20461;-78
2021/11/05 10:29:06;;;;;;;4.13;1.80;;;;;;;10.80;79.63;100599.63;5093406;28;20059;-74
2021/11/05 10:31:48;;;;;;;;;;;;;;;10.73;82.28;100592.94;5093608;28;20044;-75
2021/11/05 10:34:17;;;;;;;3.97;2.28;;;;;;;10.70;82.51;100586.88;5092314;28;19927;-75
2021/11/05 10:36:51;;;;;;;4.55;2.03;;;;;;;10.67;82.60;100603.06;5108358;28;20043;-77
2021/11/05 10:39:19;;;;;;;3.40;1.80;;;;;;;10.73;78.91;100598.25;5113718;28;20039;-73
2021/11/05 10:41:58;;;;;;;3.55;1.60;;;;;;;10.64;78.56;100609.44;5113244;28;20067;-75
2021/11/05 10:44:27;;;;;;;3.38;1.85;;;;;;;10.64;78.95;100614.78;5113662;28;20127;-74
2021/11/05 10:47:09;;;;;;;4.00;1.60;;;;;;;10.69;78.81;100610.03;5113497;28;20488;-73
2021/11/05 10:49:40;;;;;;;3.85;1.80;;;;;;;10.78;77.60;100617.53;5113783;28;20124;-73
2021/11/05 10:52:18;;;;;;;2.58;1.52;;;;;;;10.76;77.23;100614.09;5112581;28;20044;-73
2021/11/05 10:54:57;;;;;;;4.30;1.67;;;;;;;10.88;77.51;100610.75;5113459;28;20055;-74
2021/11/05 10:57:40;;;;;;;3.35;1.50;;;;;;;10.70;77.04;100619.75;5113635;28;20054;-72
2021/11/05 11:00:22;;;;;;;4.13;3.20;;;;;;;10.73;77.59;100619.59;5092817;28;20043;-73
2021/11/05 11:02:53;;;;;;;2.97;1.50;;;;;;;10.82;76.91;100616.44;5112023;28;20032;-76
2021/11/05 11:05:31;;;;;;;3.40;1.60;;;;;;;10.77;75.96;100615.81;5112997;28;20050;-73
2021/11/05 11:08:01;;;;;;;2.58;1.55;;;;;;;10.78;76.37;100606.84;5112740;28;20035;-72
2021/11/05 11:10:31;;;;;;;4.40;1.60;;;;;;;10.81;76.25;100603.19;5112872;28;20044;-72
2021/11/05 11:13:01;;;;;;;3.10;1.60;;;;;;;10.96;75.39;100601.44;5111747;28;20053;-71
2021/11/05 11:15:35;;;;;;;2.80;1.70;;;;;;;10.80;76.36;100602.28;5113011;28;20043;-71
2021/11/05 11:18:03;;;;;;;;;;;;;;;10.76;75.45;100614.09;5112111;28;20055;-73
2021/11/05 11:20:34;;;;;;;3.80;1.70;;;;;;;10.72;77.11;100601.03;5110991;28;19950;-71
2021/11/05 11:23:02;;;;;;;2.42;1.60;;;;;;;10.76;76.44;100598.09;5111588;28;20051;-72
2021/11/05 11:25:31;;;;;;;2.92;1.80;;;;;;;10.76;77.09;100608.75;5110102;28;20389;-72
2021/11/05 11:28:01;;;;;;;2.67;1.63;;;;;;;10.80;77.50;100604.97;5111782;28;20054;-73
2021/11/05 11:30:29;;;;;;;2.78;1.70;;;;;;;10.80;76.68;100604.09;5112515;28;20043;-76
2021/11/05 11:32:58;;;;;;;3.08;1.80;;;;;;;10.74;76.67;100607.13;5112069;28;20040;-72
2021/11/05 11:35:27;;;;;;;4.88;1.90;;;;;;;10.68;76.58;100624.31;5111267;28;20046;-74
2021/11/05 11:37:57;;;;;;;3.35;1.73;;;;;;;10.81;76.29;100609.38;5112073;28;20048;-77